• Join FlightAware (Why Join?)
  • Login
  • US Flag 
07:20PM EDT


 

Airport Tracker/Info


-or-


 

Live Flight TrackerFlight Track Log ✈ BJS339 ✈ 20-Dec-2013 ✈ KMIA - KEGE

Flight Track Log - Related Links

Times and Time Zones

All times are in EST time to prevent confusion due to time zone crossing. See the BJS339 flight status page for this flight to view local times or setup timezone preferences in your user account.

Time Position Orientation Groundspeed Altitude Reporting Facility
EST Latitude Longitude Course Direction KTS MPH feet Rate Location/Type
02:25PM 25.8003 -80.2700 80° East 155 178 1,000  Level Miami Center
02:26PM 25.8150 -80.1733 80° East 247 284 4,800 2,460 Climbing Miami Center
02:27PM 25.8800 -80.1614 North 303 349 6,900 1,260 Climbing Miami Center
02:28PM 25.9358 -80.1861 338° Northwest 314 361 7,000 540 Climbing Miami Center
02:29PM 26.0081 -80.2272 333° Northwest 312 359 7,900 1,860 Climbing Miami Center
02:30PM 26.0417 -80.3069 295° West 282 325 10,800 2,880 Climbing Miami Center
02:31PM 26.0753 -80.3864 295° West 276 318 13,700 2,400 Climbing Miami Center
02:32PM 26.1147 -80.4894 293° West 308 354 15,600 1,860 Climbing Miami Center
02:33PM 26.1561 -80.5878 295° West 325 374 17,500 1,800 Climbing Miami Center
02:34PM 26.1972 -80.6864 295° West 346 398 19,300 1,560 Climbing Miami Center
02:35PM 26.2328 -80.7686 296° West 352 405 20,700 1,620 Climbing Miami Center
02:36PM 26.3156 -80.8686 313° West 366 421 22,600 1,560 Climbing Miami Center
02:37PM 26.3867 -80.9428 317° Northwest 386 444 23,900 1,440 Climbing Miami Center
02:38PM 26.4739 -81.0317 318° Northwest 392 451 25,500 1,500 Climbing Miami Center
02:39PM 26.5553 -81.1111 319° Northwest 387 445 27,000 1,440 Climbing Miami Center
02:40PM 26.6342 -81.1953 316° Northwest 387 445 28,400 1,200 Climbing Miami Center
02:41PM 26.7153 -81.2775 318° Northwest 387 445 29,500 1,020 Climbing Miami Center
02:42PM 26.7689 -81.3678 304° West 382 440 30,500 1,020 Climbing Miami Center
02:43PM 26.8108 -81.4950 290° West 382 440 31,600 960 Climbing Miami Center
02:44PM 26.8467 -81.6083 290° West 394 453 32,500 840 Climbing Miami Center
02:45PM 26.8847 -81.7239 290° West 394 453 33,300 600 Climbing Miami Center
02:46PM 26.9183 -81.8417 288° West 394 453 33,900 540 Climbing Miami Center
02:47PM 26.9656 -81.9811 291° West 394 453 34,600 600 Climbing Miami Center
02:48PM 27.0011 -82.0992 289° West 394 453 35,200 600 Climbing Miami Center
02:49PM 27.0344 -82.2125 288° West 389 448 35,800 360 Climbing Miami Center
02:50PM 27.0739 -82.3308 291° West 395 455 36,000 60 Climbing Miami Center
02:51PM 27.1111 -82.4469 290° West 395 455 36,000  Level Miami Center
02:52PM 27.1503 -82.5700 290° West 405 466 36,000  Level Miami Center
02:53PM 27.1833 -82.6792 289° West 412 474 36,000  Level Miami Center
02:54PM 27.2222 -82.8022 290° West 412 474 36,000  Level Miami Center
02:55PM 27.2608 -82.9281 289° West 417 480 36,000  Level Miami Center
02:56PM 27.2972 -83.0536 288° West 417 480 36,000  Level Miami Center
02:57PM 27.3375 -83.1797 290° West 417 480 36,000  Level Miami Center
02:58PM 27.3736 -83.3056 288° West 422 486 36,000  Level Miami Center
02:59PM 27.4119 -83.4292 289° West 427 491 36,000  Level Miami Center
03:00PM 27.4500 -83.5553 289° West 427 491 36,000  Level Miami Center
03:01PM 27.4881 -83.6792 289° West 427 491 36,000  Level Miami Center
03:02PM 27.5258 -83.8053 289° West 427 491 36,000  Level Miami Center
03:03PM 27.5636 -83.9292 289° West 432 497 36,000  Level Miami Center
03:04PM 27.6011 -84.0533 289° West 432 497 36,000  Level Miami Center
03:05PM 27.6406 -84.1800 289° West 432 497 36,000  Level Miami Center
03:06PM 27.6697 -84.3036 285° West 432 497 36,000  Level Miami Center
03:07PM 27.7089 -84.4303 289° West 427 491 36,000  Level Miami Center
03:08PM 27.7522 -84.5572 291° West 432 497 36,000  Level Miami Center
03:09PM 27.7853 -84.6814 287° West 432 497 36,000  Level Miami Center
03:10PM 27.8089 -84.7578 289° West 431 496 36,000  Level Jacksonville Center
03:11PM 27.8425 -84.8828 287° West 436 502 36,000  Level Jacksonville Center
03:12PM 27.8803 -84.9983 290° West 429 494 36,000  Level Jacksonville Center
03:13PM 27.9133 -85.1331 286° West 424 488 36,000  Level Jacksonville Center
03:14PM 27.9508 -85.2606 288° West 424 488 36,000  Level Jacksonville Center
03:15PM 27.9861 -85.3836 288° West 429 494 36,000  Level Jacksonville Center
03:16PM 28.0233 -85.5069 289° West 423 487 36,000  Level Jacksonville Center
03:17PM 28.0581 -85.6347 287° West 423 487 36,000  Level Jacksonville Center
03:18PM 28.0911 -85.7508 288° West 423 487 36,000  Level Jacksonville Center
03:19PM 28.1214 -85.8836 285° West 423 487 36,000  Level Jacksonville Center
03:20PM 28.1517 -86.0114 285° West 423 487 36,000  Level Jacksonville Center
03:21PM 28.1822 -86.1350 286° West 418 481 36,000  Level Jacksonville Center
03:22PM 28.2122 -86.2583 285° West 418 481 36,000  Level Jacksonville Center
03:23PM 28.2422 -86.3842 285° West 418 481 36,000  Level Jacksonville Center
03:24PM 28.2722 -86.5125 285° West 418 481 36,000  Level Jacksonville Center
03:25PM 28.3000 -86.6383 284° West 418 481 36,000  Level Jacksonville Center
03:26PM 28.3403 -86.7553 291° West 412 474 36,000  Level Jacksonville Center
03:27PM 28.3953 -86.8683 299° West 405 466 36,000  Level Jacksonville Center
03:28PM 28.4519 -86.9861 299° West 411 473 36,000  Level Jacksonville Center
03:29PM 28.5008 -87.0897 298° West 402 463 36,000  Level Jacksonville Center
03:30PM 28.5636 -87.2128 300° West 411 473 36,000  Level Jacksonville Center
03:31PM 28.6144 -87.3219 298° West 408 470 36,000  Level Houston Center
03:32PM 28.6681 -87.4358 298° West 412 474 36,000  Level Houston Center
03:33PM 28.7242 -87.5528 299° West 419 482 36,000  Level Houston Center
03:34PM 28.7786 -87.6686 298° West 417 480 36,000  Level Houston Center
03:35PM 28.8336 -87.7842 299° West 414 476 36,000  Level Houston Center
03:36PM 28.8994 -87.9233 298° West 416 479 36,000  Level Houston Center
03:37PM 28.9531 -88.0389 298° West 413 475 36,000  Level Houston Center
03:38PM 29.0081 -88.1558 298° West 414 476 36,000  Level Houston Center
03:39PM 29.0633 -88.2708 299° West 415 478 36,000  Level Houston Center
03:40PM 29.1197 -88.3861 299° West 415 478 36,000  Level Houston Center
03:41PM 29.1747 -88.5017 299° West 414 476 36,000  Level Houston Center
03:42PM 29.2411 -88.6411 299° West 415 478 36,000  Level Houston Center
03:43PM 29.2958 -88.7589 298° West 418 481 36,000  Level Houston Center
03:44PM 29.3522 -88.8742 299° West 417 480 36,000  Level Houston Center
03:45PM 29.4061 -88.9900 298° West 414 476 36,000  Level Houston Center
03:46PM 29.4619 -89.1072 299° West 416 479 36,000  Level Houston Center
03:47PM 29.5172 -89.2244 298° West 417 480 36,000  Level Houston Center
03:48PM 29.5831 -89.3664 298° West 419 482 36,000  Level Houston Center
03:49PM 29.6381 -89.4831 298° West 417 480 36,000  Level Houston Center
03:50PM 29.6933 -89.6022 298° West 419 482 36,000  Level Houston Center
03:51PM 29.7478 -89.7206 298° West 419 482 36,000  Level Houston Center
03:52PM 29.8025 -89.8400 298° West 420 483 36,000  Level Houston Center
03:53PM 29.8572 -89.9572 298° West 415 478 36,000  Level Houston Center
03:54PM 29.9122 -90.0767 298° West 417 480 36,000  Level Houston Center
03:56PM 29.9786 -90.2217 298° West 422 486 36,000  Level Houston Center
03:57PM 30.0339 -90.3433 298° West 426 490 36,000  Level Houston Center
03:58PM 30.0878 -90.4603 298° West 416 479 36,000  Level Houston Center
03:59PM 30.1400 -90.5728 298° West 399 459 36,000  Level Houston Center
04:00PM 30.1911 -90.6875 297° West 401 461 36,000  Level Houston Center
04:01PM 30.2439 -90.8047 298° West 409 471 36,000  Level Houston Center
04:02PM 30.3089 -90.9472 298° West 416 479 36,000  Level Houston Center
04:03PM 30.3614 -91.0642 298° West 412 474 36,000  Level Houston Center
04:04PM 30.4136 -91.1811 297° West 410 472 36,000  Level Houston Center
04:05PM 30.4667 -91.2981 298° West 409 471 36,000  Level Houston Center
04:06PM 30.5192 -91.4161 297° West 412 474 36,000  Level Houston Center
04:07PM 30.5789 -91.5528 297° West 410 472 36,000  Level Houston Center
04:08PM 30.6450 -91.6589 306° West 409 471 36,000  Level Houston Center
04:09PM 30.7317 -91.7525 317° Northwest 424 488 36,000  Level Houston Center
04:10PM 30.8175 -91.8478 316° Northwest 426 490 36,000  Level Houston Center
04:11PM 30.9039 -91.9436 316° Northwest 428 493 36,000  Level Houston Center
04:12PM 31.0081 -92.0583 317° Northwest 431 496 36,000  Level Houston Center
04:13PM 31.0953 -92.1572 316° Northwest 430 495 36,000  Level Houston Center
04:14PM 31.1828 -92.2531 317° Northwest 432 497 36,000  Level Houston Center
04:15PM 31.2697 -92.3492 317° Northwest 430 495 36,000  Level Houston Center
04:16PM 31.3561 -92.4478 316° Northwest 434 499 36,000  Level Houston Center
04:17PM 31.4417 -92.5433 316° Northwest 430 495 36,000  Level Houston Center
04:18PM 31.5472 -92.6608 317° Northwest 434 499 36,000  Level Houston Center
04:19PM 31.6333 -92.7578 316° Northwest 431 496 36,000  Level Houston Center
04:20PM 31.7181 -92.8542 316° Northwest 426 490 36,000  Level Houston Center
04:21PM 31.8031 -92.9503 316° Northwest 425 489 36,000  Level Houston Center
04:22PM 31.8975 -93.0575 316° Northwest 426 490 36,000  Level Houston Center
04:23PM 31.9825 -93.1544 316° Northwest 427 491 36,000  Level Houston Center
04:25PM 32.0683 -93.2522 316° Northwest 429 494 36,000  Level Houston Center
04:26PM 32.1550 -93.3511 316° Northwest 430 495 36,000  Level Fort Worth Center
04:27PM 32.2492 -93.4619 315° West 435 501 36,000  Level Fort Worth Center
04:28PM 32.3358 -93.5611 316° Northwest 434 499 36,000  Level Fort Worth Center
04:29PM 32.4225 -93.6614 316° Northwest 435 501 36,000  Level Fort Worth Center
04:30PM 32.5108 -93.7628 316° Northwest 439 505 36,000  Level Fort Worth Center
04:31PM 32.6161 -93.8861 315° West 440 506 36,000  Level Fort Worth Center
04:32PM 32.7025 -93.9864 316° Northwest 435 501 36,000  Level Fort Worth Center
04:33PM 32.7878 -94.0858 316° Northwest 431 496 36,000  Level Fort Worth Center
04:34PM 32.8731 -94.1864 315° West 429 494 36,000  Level Fort Worth Center
04:35PM 32.9581 -94.2881 315° West 428 493 36,000  Level Fort Worth Center
04:36PM 33.0444 -94.3889 316° Northwest 432 497 36,000  Level Fort Worth Center
04:37PM 33.1306 -94.4919 315° West 436 502 36,000  Level Fort Worth Center
04:38PM 33.2336 -94.6136 315° West 433 498 36,000  Level Fort Worth Center
04:39PM 33.3178 -94.7156 315° West 431 496 36,000  Level Fort Worth Center
04:40PM 33.4044 -94.8169 316° Northwest 436 502 36,000  Level Fort Worth Center
04:41PM 33.4900 -94.9200 315° West 436 502 36,000  Level Fort Worth Center
04:42PM 33.5725 -95.0225 314° West 431 496 36,000  Level Fort Worth Center
04:43PM 33.6569 -95.1256 315° West 437 503 36,000  Level Fort Worth Center
04:44PM 33.7594 -95.2475 315° West 434 499 36,000  Level Fort Worth Center
04:45PM 33.8436 -95.3492 315° West 429 494 36,000  Level Fort Worth Center
04:46PM 33.9267 -95.4506 315° West 426 490 36,000  Level Fort Worth Center
04:47PM 34.0114 -95.5519 315° West 430 495 36,000  Level Fort Worth Center
04:48PM 34.1008 -95.6650 314° West 418 481 36,000  Level Fort Worth Center
04:49PM 34.1836 -95.7644 315° West 418 481 36,000  Level Fort Worth Center
04:50PM 34.2650 -95.8658 314° West 418 481 36,000  Level Fort Worth Center
04:51PM 34.3467 -95.9647 315° West 414 476 36,000  Level Fort Worth Center
04:52PM 34.4283 -96.0683 314° West 428 493 36,000  Level Fort Worth Center
04:54PM 34.5206 -96.1947 312° West 416 479 36,000  Level Fort Worth Center
04:55PM 34.6061 -96.2894 318° Northwest 413 475 36,000  Level Fort Worth Center
04:56PM 34.6872 -96.3925 314° West 418 481 36,000  Level Fort Worth Center
04:57PM 34.7694 -96.4947 314° West 421 484 36,000  Level Fort Worth Center
04:58PM 34.8506 -96.5978 314° West 422 486 36,000  Level Fort Worth Center
04:59PM 34.9475 -96.7228 313° West 424 488 36,000  Level Fort Worth Center
05:00PM 35.0286 -96.8256 314° West 421 484 36,000  Level Fort Worth Center
05:01PM 35.1089 -96.9292 313° West 421 484 36,000  Level Fort Worth Center
05:01PM 35.1247 -96.9500 313° West 420 483 36,000  Level Fort Worth Center
05:02PM 35.2058 -97.0536 314° West 422 486 36,000  Level Fort Worth Center
05:03PM 35.2875 -97.1578 314° West 424 488 36,000  Level Fort Worth Center
05:05PM 35.4464 -97.3611 314° West 425 489 36,000  Level Kansas City Center
05:06PM 35.5247 -97.4631 313° West 428 493 36,000  Level Kansas City Center
05:07PM 35.6042 -97.5669 313° West 422 486 36,000  Level Kansas City Center
05:08PM 35.6853 -97.6725 313° West 424 488 36,000  Level Kansas City Center
05:09PM 35.7833 -97.8008 313° West 429 494 36,000  Level Kansas City Center
05:10PM 35.8653 -97.9086 313° West 431 496 36,000  Level Kansas City Center
05:11PM 35.9475 -98.0158 313° West 431 496 36,000  Level Kansas City Center
05:12PM 36.0347 -98.1314 313° West 431 496 36,000  Level Kansas City Center
05:13PM 36.1161 -98.2394 313° West 430 495 36,000  Level Kansas City Center
05:14PM 36.1981 -98.3486 313° West 432 497 36,000  Level Kansas City Center
05:15PM 36.2792 -98.4586 312° West 433 498 36,000  Level Kansas City Center
05:16PM 36.3767 -98.5881 313° West 430 495 36,000  Level Kansas City Center
05:17PM 36.4556 -98.6967 312° West 426 490 36,000  Level Kansas City Center
05:18PM 36.5344 -98.8017 313° West 420 483 36,000  Level Kansas City Center
05:19PM 36.6128 -98.9058 313° West 416 479 36,000  Level Kansas City Center
05:20PM 36.6900 -99.0117 312° West 414 476 36,000  Level Kansas City Center
05:21PM 36.7689 -99.1192 313° West 417 480 36,000  Level Kansas City Center
05:22PM 36.8644 -99.2506 312° West 423 487 36,000  Level Kansas City Center
05:23PM 36.9428 -99.3597 312° West 424 488 36,000  Level Kansas City Center
05:25PM 37.0233 -99.4700 312° West 427 491 36,000  Level Kansas City Center
05:26PM 37.1092 -99.5897 312° West 427 491 36,000  Level Kansas City Center
05:27PM 37.1867 -99.6953 313° West 429 494 36,000  Level Kansas City Center
05:28PM 37.2939 -99.8053 321° Northwest 449 517 36,000  Level Kansas City Center
05:29PM 37.3992 -99.8883 328° Northwest 466 536 36,000  Level Kansas City Center
05:30PM 37.5197 -99.9833 328° Northwest 461 531 36,000  Level Kansas City Center
05:31PM 37.6233 -100.0653 328° Northwest 461 531 36,000  Level Kansas City Center
05:32PM 37.7442 -100.1592 328° Northwest 459 528 36,000  Level Kansas City Center
05:33PM 37.8478 -100.2381 329° Northwest 457 526 36,000  Level Kansas City Center
05:34PM 37.9703 -100.3278 330° Northwest 458 527 36,000  Level Kansas City Center
05:35PM 38.0650 -100.4122 325° Northwest 443 510 36,000  Level Kansas City Center
05:36PM 38.1733 -100.5144 323° Northwest 436 502 36,000  Level Kansas City Center
05:37PM 38.2650 -100.6031 323° Northwest 435 501 36,000  Level Kansas City Center
05:38PM 38.3739 -100.7058 324° Northwest 437 503 36,000  Level Kansas City Center
05:39PM 38.4672 -100.7953 323° Northwest 437 503 36,000  Level Kansas City Center
05:40PM 38.5761 -100.9003 323° Northwest 439 505 36,000  Level Kansas City Center
05:41PM 38.6597 -101.0014 317° Northwest 433 498 36,000  Level Kansas City Center
05:42PM 38.7092 -101.1186 298° West 398 458 36,000  Level Kansas City Center
05:43PM 38.7639 -101.2575 297° West 391 450 36,000  Level Kansas City Center
05:45PM 38.8328 -101.4353 296° West 389 448 36,000  Level Denver Center
05:46PM 38.8867 -101.5758 296° West 392 451 36,000  Level Denver Center
05:47PM 38.9333 -101.6989 296° West 399 459 36,000  Level Denver Center
05:48PM 38.9875 -101.8442 296° West 403 464 36,000  Level Denver Center
05:49PM 39.0356 -101.9675 297° West 403 464 36,000  Level Denver Center
05:50PM 39.0892 -102.1125 296° West 402 463 36,000  Level Denver Center
05:51PM 39.1358 -102.2369 296° West 403 464 36,000  Level Denver Center
05:52PM 39.1917 -102.3875 296° West 412 474 36,000  Level Denver Center
05:53PM 39.2372 -102.5150 295° West 411 473 36,000  Level Denver Center
05:54PM 39.2922 -102.6636 296° West 412 474 36,000  Level Denver Center
05:55PM 39.3375 -102.7847 296° West 402 463 36,000  Level Denver Center
05:56PM 39.3842 -102.9147 295° West 399 459 36,000  Level Denver Center
05:57PM 39.4336 -103.0503 295° West 413 475 36,000  Level Denver Center
05:58PM 39.4939 -103.2183 295° West 428 493 36,000  Level Denver Center
05:59PM 39.5447 -103.3583 295° West 430 495 36,000  Level Denver Center
06:00PM 39.5964 -103.5008 295° West 436 502 36,000  Level Denver Center
06:01PM 39.6458 -103.6419 295° West 433 498 36,000 -420 Level Denver Center
06:02PM 39.6969 -103.7850 295° West 440 506 35,200 -1,020 Descending Denver Center
06:03PM 39.7553 -103.9528 294° West 419 482 33,900 -1,200 Descending Denver Center
06:04PM 39.8022 -104.0883 294° West 414 476 32,800 -1,080 Descending Denver Center
06:05PM 39.8489 -104.2222 294° West 410 472 31,700 -1,080 Descending Denver Center
06:06PM 39.8961 -104.3572 295° West 414 476 30,600 -1,080 Descending Denver Center
06:07PM 39.9428 -104.4936 294° West 414 476 29,500 -1,200 Descending Denver Center
06:08PM 40.0017 -104.6672 294° West 438 504 28,200 -780 Descending Denver Center
06:09PM 40.0331 -104.8125 286° West 423 487 28,000 -120 Descending Denver Center
06:11PM 40.0328 -104.9653 270° West 422 486 28,000 -180 Level Denver Center
06:12PM 40.0306 -105.1058 269° West 382 440 27,700 -540 Descending Denver Center
06:13PM 40.0283 -105.2375 269° West 367 422 27,000 -360 Descending Denver Center
06:14PM 40.0253 -105.3933 269° West 359 413 27,000 -720 Level Denver Center
06:15PM 40.0239 -105.5253 269° West 366 421 25,600 -1,500 Descending Denver Center
06:16PM 40.0208 -105.6578 268° West 356 410 24,000 -780 Descending Denver Center
06:17PM 40.0194 -105.7850 269° West 326 375 24,000  Level Denver Center
06:18PM 40.0164 -105.8869 268° West 319 367 24,000  Level Denver Center
06:19PM 40.0133 -106.0339 268° West 336 387 24,000 -540 Level Denver Center
06:20PM 40.0603 -106.1378 301° West 334 384 22,900 -1,440 Descending Denver Center
06:21PM 40.1081 -106.2367 302° West 327 376 21,100 -960 Descending Denver Center
06:22PM 40.1522 -106.3303 302° West 308 354 21,000 -60 Descending Denver Center
06:23PM 40.2067 -106.4461 302° West 310 357 21,000 -240 Level Denver Center
06:24PM 40.2556 -106.5503 302° West 313 360 20,500 -960 Descending Denver Center
06:25PM 40.2869 -106.6525 292° West 312 359 19,000 -1,560 Descending Denver Center
06:26PM 40.2861 -106.7600 269° West 297 342 17,300 -1,020 Descending Denver Center
06:27PM 40.3581 -106.7811 347° North 311 358 17,000 -180 Descending Denver Center
06:28PM 40.3789 -106.6422 79° East 330 380 17,000  Level Denver Center
06:29PM 40.3750 -106.5358 93° East 303 349 17,000 -60 Level Denver Center
06:30PM 40.3569 -106.4433 104° East 279 321 16,900 -360 Descending Denver Center
06:31PM 40.2908 -106.4125 160° South 256 295 16,300 -480 Descending Denver Center
06:32PM 40.2272 -106.4200 185° South 240 276 16,000 -360 Descending Denver Center
06:33PM 40.1625 -106.4272 185° South 234 269 15,600 -540 Descending Denver Center
06:35PM 40.0997 -106.4325 184° South 230 265 15,000 -780 Descending Denver Center
06:36PM 40.0331 -106.4392 184° South 214 246 14,100 -480 Descending Denver Center
06:37PM 39.9825 -106.4478 187° South 198 228 14,000 -60 Descending Denver Center
06:38PM 39.9408 -106.4678 200° South 176 203 14,000  Level Denver Center
06:39PM 39.8983 -106.4867 199° South 165 190 14,000  Level Denver Center
06:40PM 39.8553 -106.5058 199° South 163 188 14,000  Level Denver Center
06:41PM 39.8100 -106.5256 199° South 168 193 14,000 -300 Level Denver Center
06:42PM 39.7611 -106.5453 197° South 179 206 13,500 -480 Descending Denver Center
06:43PM 39.7089 -106.5669 198° South 180 207 13,100 -720 Descending Denver Center
06:44PM 39.6867 -106.6156 239° Southwest 159 183 12,100 -1,020 Descending Denver Center
06:45PM 39.6783 -106.6761 260° West 144 166 11,000 -1,020 Descending Denver Center
06:46PM 39.6708 -106.7264 259° West 142 163 10,000 -1,020 Descending Denver Center
06:47PM 39.6625 -106.7794 258° West 148 170 9,000 -1,020 Descending Denver Center
06:48PM 39.6544 -106.8308 259° West 147 169 8,000 -1,020 Descending Denver Center
06:49PM 39.6458 -106.8806 257° West 144 166 7,000 -1,020 Descending Denver Center